Time;durP1;ratioP1;P1;durP2;ratioP2;P2;SDS_P1;SDS_P2;PMS_P1;PMS_P2;Temp;Humidity;BMP_temperature;BMP_pressure;BME280_temperature;BME280_humidity;BME280_pressure;Samples;Min_cycle;Max_cycle;Signal;HPM_P1;HPM_P2
2023/09/28 00:02:00;;;;;;;21.13;8.13;;;;;;;18.02;100.00;100346.25;5027635;28;20291;-57
2023/09/28 00:04:30;;;;;;;17.20;7.87;;;;;;;17.97;100.00;100342.94;5036341;28;20282;-58
2023/09/28 00:07:02;;;;;;;13.70;7.10;;;;;;;17.85;100.00;100354.94;5031159;28;20780;-59
2023/09/28 00:09:33;;;;;;;14.73;7.27;;;;;;;17.74;100.00;100345.72;5035623;28;20759;-57
2023/09/28 00:12:02;;;;;;;13.47;6.23;;;;;;;17.63;100.00;100348.84;5045942;28;20287;-59
2023/09/28 00:14:32;;;;;;;;;;;;;;;17.64;100.00;100343.47;5025598;28;20731;-58
2023/09/28 00:17:03;;;;;;;12.93;6.40;;;;;;;17.73;100.00;100344.03;5026973;28;19923;-59
2023/09/28 00:19:34;;;;;;;12.13;6.60;;;;;;;17.72;100.00;100337.00;5016948;28;20279;-56
2023/09/28 00:22:05;;;;;;;12.47;6.97;;;;;;;17.83;100.00;100342.72;5026905;28;20615;-58
2023/09/28 00:24:35;;;;;;;12.20;6.57;;;;;;;17.80;100.00;100345.50;5028278;28;20361;-58
2023/09/28 00:27:05;;;;;;;11.50;6.90;;;;;;;17.74;100.00;100340.44;5041961;28;20301;-58
2023/09/28 00:29:39;;;;;;;18.45;7.80;;;;;;;17.66;100.00;100339.00;5046519;28;20283;-58
2023/09/28 00:32:08;;;;;;;17.80;8.47;;;;;;;17.54;100.00;100347.47;5036579;28;20520;-59
2023/09/28 00:34:39;;;;;;;19.77;10.07;;;;;;;17.41;100.00;100333.94;5045457;28;20624;-58
2023/09/28 00:37:10;;;;;;;19.80;9.43;;;;;;;17.37;100.00;100342.06;5036497;28;20287;-58
2023/09/28 00:39:40;;;;;;;21.77;10.63;;;;;;;17.32;100.00;100338.75;5046082;28;20287;-57
2023/09/28 00:42:11;;;;;;;18.97;10.20;;;;;;;17.24;100.00;100328.53;5036020;28;20278;-57
2023/09/28 00:44:40;;;;;;;20.10;11.30;;;;;;;17.20;100.00;100314.59;5046761;28;20354;-60
2023/09/28 00:47:11;;;;;;;18.55;10.85;;;;;;;17.11;100.00;100309.72;5035802;28;20359;-57
2023/09/28 00:49:42;;;;;;;24.33;11.33;;;;;;;17.07;100.00;100313.38;5046515;28;20060;-58
2023/09/28 00:52:16;;;;;;;22.47;11.17;;;;;;;17.01;100.00;100313.66;5036210;28;20319;-59
2023/09/28 00:54:47;;;;;;;25.03;12.57;;;;;;;17.03;100.00;100311.81;5046619;28;20377;-57
2023/09/28 00:57:18;;;;;;;21.90;10.93;;;;;;;17.02;100.00;100295.13;5035951;28;20842;-56
2023/09/28 00:59:47;;;;;;;22.67;12.07;;;;;;;17.19;100.00;100310.22;5046823;28;20295;-58
2023/09/28 01:02:18;;;;;;;23.20;12.20;;;;;;;17.22;100.00;100312.75;5021023;28;20326;-58
2023/09/28 01:04:48;;;;;;;23.00;12.27;;;;;;;17.23;100.00;100305.69;5026202;28;20286;-58
2023/09/28 01:07:30;;;;;;;25.93;11.27;;;;;;;17.21;100.00;100305.75;5018947;28;20278;-57
2023/09/28 01:09:59;;;;;;;21.20;12.53;;;;;;;17.20;100.00;100298.75;5030175;28;20427;-59
2023/09/28 01:12:29;;;;;;;23.77;11.50;;;;;;;17.22;100.00;100296.03;5016028;28;20279;-58
2023/09/28 01:15:00;;;;;;;21.33;11.37;;;;;;;17.17;100.00;100276.91;5026171;28;20053;-57
2023/09/28 01:17:31;;;;;;;20.30;11.00;;;;;;;17.21;100.00;100281.97;5015919;28;20379;-58
2023/09/28 01:20:00;;;;;;;19.10;10.53;;;;;;;17.24;100.00;100295.03;5026192;28;20286;-58
2023/09/28 01:22:32;;;;;;;20.83;10.55;;;;;;;17.29;100.00;100286.94;5015519;28;20311;-58
2023/09/28 01:25:03;;;;;;;19.33;10.27;;;;;;;17.33;100.00;100285.03;5026016;28;20383;-60
2023/09/28 01:27:34;;;;;;;23.73;11.00;;;;;;;17.35;100.00;100291.09;5034974;28;20290;-59
2023/09/28 01:30:03;;;;;;;18.50;9.70;;;;;;;17.33;100.00;100282.38;5045661;28;20516;-60
2023/09/28 01:32:34;;;;;;;15.70;9.83;;;;;;;17.37;100.00;100283.94;5034887;28;20364;-58
2023/09/28 01:35:04;;;;;;;17.83;10.87;;;;;;;17.32;100.00;100283.28;5045528;28;20360;-58
2023/09/28 01:37:48;;;;;;;18.10;12.13;;;;;;;17.22;100.00;100274.91;5029936;28;20275;-58
2023/09/28 01:40:18;;;;;;;18.27;10.80;;;;;;;17.05;100.00;100241.34;5035297;28;20699;-57
2023/09/28 01:42:49;;;;;;;17.00;10.80;;;;;;;17.26;100.00;100279.16;5045457;28;20829;-57
2023/09/28 01:45:18;;;;;;;16.93;11.17;;;;;;;17.33;100.00;100277.09;5034950;28;20311;-57
2023/09/28 01:47:48;;;;;;;16.08;10.35;;;;;;;17.38;100.00;100267.19;5046004;28;20706;-59
2023/09/28 01:50:18;;;;;;;17.73;10.13;;;;;;;17.43;100.00;100267.84;5035147;28;20056;-56
2023/09/28 01:52:51;;;;;;;16.30;10.43;;;;;;;17.48;100.00;100265.84;5045301;28;20388;-58
2023/09/28 01:55:20;;;;;;;14.23;9.97;;;;;;;17.50;100.00;100258.72;5034821;28;20283;-60
2023/09/28 01:57:51;;;;;;;17.63;10.90;;;;;;;17.57;100.00;100249.59;5038893;28;20302;-58
2023/09/28 02:00:22;;;;;;;19.07;10.80;;;;;;;17.65;100.00;100234.25;5015212;28;20048;-60
2023/09/28 02:02:53;;;;;;;14.17;9.57;;;;;;;17.73;100.00;100233.88;5025102;28;20371;-59
2023/09/28 02:05:24;;;;;;;23.23;12.57;;;;;;;17.90;100.00;100230.50;5015664;28;20826;-57
2023/09/28 02:07:57;;;;;;;14.90;10.27;;;;;;;17.94;100.00;100231.19;5024771;28;20599;-57
2023/09/28 02:10:27;;;;;;;17.20;10.87;;;;;;;17.76;100.00;100198.53;5014956;28;20280;-61
2023/09/28 02:12:57;;;;;;;17.07;10.43;;;;;;;18.05;100.00;100240.34;5025054;28;20299;-59
2023/09/28 02:15:27;;;;;;;17.10;11.97;;;;;;;18.21;100.00;100235.16;5014483;28;20680;-60
2023/09/28 02:17:56;;;;;;;;;;;;;;;18.36;100.00;100228.25;5025006;28;20298;-59
2023/09/28 02:20:26;;;;;;;16.03;10.40;;;;;;;18.54;100.00;100222.03;5014873;28;19949;-59
2023/09/28 02:22:57;;;;;;;;;;;;;;;18.83;100.00;100219.75;5025691;28;20383;-60
2023/09/28 02:25:26;;;;;;;19.40;12.97;;;;;;;19.05;100.00;100221.31;5014516;28;19925;-58
2023/09/28 02:27:56;;;;;;;;;;;;;;;19.23;100.00;100204.44;5025325;28;20301;-59
2023/09/28 02:30:26;;;;;;;23.07;12.33;;;;;;;19.35;100.00;100203.78;5014692;28;19921;-58
2023/09/28 02:32:57;;;;;;;15.80;10.73;;;;;;;19.52;100.00;100204.66;5024819;28;20709;-58
2023/09/28 02:35:27;;;;;;;21.80;14.30;;;;;;;19.60;100.00;100213.06;5015043;28;20277;-57
2023/09/28 02:37:58;;;;;;;16.60;11.57;;;;;;;19.56;100.00;100207.06;5024496;28;20626;-58
2023/09/28 02:40:29;;;;;;;22.03;13.67;;;;;;;19.64;100.00;100203.97;5013856;28;20279;-58
2023/09/28 02:42:59;;;;;;;15.30;10.20;;;;;;;19.81;100.00;100195.97;5024406;28;20587;-58
2023/09/28 02:45:29;;;;;;;;;;;;;;;19.89;100.00;100177.00;5015301;28;20287;-57
2023/09/28 02:47:58;;;;;;;14.77;8.63;;;;;;;19.99;99.82;100177.31;5024289;28;19982;-57
2023/09/28 02:50:28;;;;;;;;;;;;;;;20.08;99.02;100176.81;5014856;28;20283;-57
2023/09/28 02:52:58;;;;;;;16.17;8.20;;;;;;;20.13;98.11;100173.91;5024476;28;20252;-58
2023/09/28 02:55:29;;;;;;;10.77;7.87;;;;;;;20.15;97.49;100164.91;5014314;28;20303;-57
2023/09/28 02:57:58;;;;;;;12.07;7.90;;;;;;;20.13;98.25;100158.84;5027423;28;20310;-58
2023/09/28 03:00:32;;;;;;;;;;;;;;;20.19;96.67;100155.84;5018394;28;20291;-57
2023/09/28 03:03:03;;;;;;;15.33;8.03;;;;;;;20.14;96.99;100149.91;5044086;28;19923;-60
2023/09/28 03:05:34;;;;;;;13.37;8.70;;;;;;;20.10;96.29;100137.78;5018024;28;20291;-57
2023/09/28 03:08:10;;;;;;;17.97;8.17;;;;;;;20.06;97.14;100141.56;5028425;28;20298;-57
2023/09/28 03:10:41;;;;;;;15.90;8.47;;;;;;;19.84;97.34;100099.50;5006653;28;20827;-58
2023/09/28 03:13:11;;;;;;;17.30;8.20;;;;;;;19.89;97.23;100120.44;4997935;28;20330;-58
2023/09/28 03:15:43;;;;;;;17.13;8.60;;;;;;;19.79;96.86;100118.34;5007729;28;20443;-57
2023/09/28 03:18:13;;;;;;;17.33;8.13;;;;;;;19.75;98.00;100122.09;5015983;28;20282;-58
2023/09/28 03:20:44;;;;;;;14.90;8.27;;;;;;;19.74;98.77;100115.06;5028051;28;20330;-57
2023/09/28 03:23:17;;;;;;;15.27;7.83;;;;;;;19.74;99.52;100115.06;5017619;28;20629;-57
2023/09/28 03:25:46;;;;;;;11.03;6.40;;;;;;;19.70;97.45;100108.25;5028397;28;20271;-58
2023/09/28 03:28:17;;;;;;;9.20;5.30;;;;;;;19.66;96.93;100101.38;5018324;28;20295;-58
2023/09/28 03:30:46;;;;;;;8.20;5.47;;;;;;;19.67;96.06;100092.53;5028700;28;20274;-58
2023/09/28 03:33:16;;;;;;;;;;;;;;;19.63;95.09;100090.97;5018664;28;20332;-58
2023/09/28 03:35:46;;;;;;;10.80;5.77;;;;;;;19.63;95.46;100090.97;5028804;28;19932;-59
2023/09/28 03:38:19;;;;;;;8.53;5.83;;;;;;;19.63;95.52;100096.25;5018529;28;20359;-59
2023/09/28 03:40:49;;;;;;;11.83;6.00;;;;;;;19.56;95.08;100079.00;5028313;28;20337;-56
2023/09/28 03:43:20;;;;;;;9.93;5.63;;;;;;;19.56;95.51;100089.59;5018532;28;20275;-58
2023/09/28 03:45:51;;;;;;;9.80;5.13;;;;;;;19.52;95.45;100082.75;5028289;28;20298;-57
2023/09/28 03:48:21;;;;;;;8.90;5.43;;;;;;;19.53;96.42;100081.81;5035931;28;20735;-58
2023/09/28 03:50:52;;;;;;;8.70;5.23;;;;;;;19.52;96.23;100077.44;5040920;28;20308;-60
2023/09/28 03:53:24;;;;;;;11.53;5.87;;;;;;;19.51;96.69;100081.03;5017996;28;20318;-58
2023/09/28 03:55:55;;;;;;;10.80;5.80;;;;;;;19.52;96.97;100077.44;5027458;28;20287;-57
2023/09/28 03:58:26;;;;;;;9.47;5.50;;;;;;;19.57;97.11;100075.41;5017268;28;20374;-58
2023/09/28 04:00:57;;;;;;;6.60;4.60;;;;;;;19.58;96.79;100077.13;5027143;28;20284;-57
2023/09/28 04:03:27;;;;;;;6.43;4.80;;;;;;;19.51;96.41;100075.75;5017310;28;20285;-58
2023/09/28 04:05:58;;;;;;;8.40;5.17;;;;;;;19.44;96.36;100074.38;5027208;28;20288;-57
2023/09/28 04:08:30;;;;;;;8.60;5.23;;;;;;;19.36;97.14;100073.00;5017354;28;20278;-57
2023/09/28 04:11:00;;;;;;;10.60;5.40;;;;;;;19.43;97.41;100062.09;5026989;28;20286;-58
2023/09/28 04:13:31;;;;;;;6.80;5.30;;;;;;;19.57;97.84;100064.81;5016568;28;20635;-59
2023/09/28 04:16:02;;;;;;;10.90;5.67;;;;;;;19.68;97.46;100061.56;5027013;28;20329;-58
2023/09/28 04:18:32;;;;;;;12.53;5.20;;;;;;;19.73;96.90;100056.88;5026580;28;20307;-57
2023/09/28 04:21:03;;;;;;;7.93;4.83;;;;;;;19.74;96.61;100051.44;5046452;28;20760;-57
2023/09/28 04:23:35;;;;;;;10.97;5.37;;;;;;;19.71;96.52;100051.63;5028688;28;20372;-58
2023/09/28 04:26:07;;;;;;;8.00;5.23;;;;;;;19.63;96.43;100053.84;5009792;28;20288;-57
2023/09/28 04:28:38;;;;;;;10.33;5.57;;;;;;;19.58;96.74;100045.31;5007212;28;20281;-57
2023/09/28 04:31:08;;;;;;;10.37;5.80;;;;;;;19.52;97.42;100041.22;4997163;28;20276;-58
2023/09/28 04:33:39;;;;;;;10.07;6.37;;;;;;;19.49;97.81;100044.03;5006591;28;20740;-58
2023/09/28 04:36:09;;;;;;;11.07;5.97;;;;;;;19.47;98.76;100034.44;4997106;28;20292;-58
2023/09/28 04:38:44;;;;;;;13.03;6.37;;;;;;;19.43;98.87;100019.69;5007574;28;20291;-57
2023/09/28 04:41:15;;;;;;;14.53;6.63;;;;;;;19.53;99.06;100021.72;4996887;28;20413;-57
2023/09/28 04:43:45;;;;;;;10.40;6.00;;;;;;;19.58;98.45;100018.81;5006979;28;20734;-59
2023/09/28 04:46:18;;;;;;;13.53;6.20;;;;;;;19.69;98.34;100016.41;5003569;28;21292;-60
2023/09/28 04:48:49;;;;;;;10.60;6.30;;;;;;;19.74;98.65;100008.19;5026533;28;20295;-57
2023/09/28 04:51:22;;;;;;;10.27;5.90;;;;;;;19.80;98.52;100014.00;5016581;28;20795;-57
2023/09/28 04:53:54;;;;;;;9.17;5.70;;;;;;;19.77;97.25;99995.63;5026935;28;20271;-57
2023/09/28 04:56:25;;;;;;;11.20;6.23;;;;;;;19.87;96.71;100013.63;5017292;28;20425;-58
2023/09/28 04:58:55;;;;;;;12.37;6.60;;;;;;;19.96;96.87;100013.09;5026714;28;20280;-58
2023/09/28 05:01:27;;;;;;;9.83;5.93;;;;;;;20.04;96.25;99997.56;5016428;28;20324;-58
2023/09/28 05:03:57;;;;;;;9.73;6.03;;;;;;;20.13;96.01;99999.69;5026515;28;20279;-58
2023/09/28 05:06:28;;;;;;;10.83;5.87;;;;;;;20.16;95.58;99999.47;5016294;28;20275;-57
2023/09/28 05:09:00;;;;;;;10.77;5.97;;;;;;;20.15;94.04;100003.09;5025497;28;20370;-57
2023/09/28 05:11:31;;;;;;;10.27;5.50;;;;;;;20.16;94.16;99991.53;5035278;28;20283;-57
2023/09/28 05:14:02;;;;;;;9.63;5.30;;;;;;;20.20;93.70;99995.72;5044918;28;20373;-58
2023/09/28 05:16:33;;;;;;;9.47;5.47;;;;;;;20.23;91.80;99990.22;5034894;28;20279;-58
2023/09/28 05:19:04;;;;;;;10.73;5.73;;;;;;;20.25;92.31;99985.66;5044868;28;20760;-58
2023/09/28 05:21:34;;;;;;;10.87;5.77;;;;;;;20.28;91.68;99987.28;5023108;28;20750;-58
2023/09/28 05:24:07;;;;;;;9.30;4.83;;;;;;;20.32;90.86;99982.63;5025526;28;20773;-57
2023/09/28 05:26:38;;;;;;;12.63;5.53;;;;;;;20.44;91.93;99977.44;5024123;28;20284;-58
2023/09/28 05:29:08;;;;;;;8.27;5.20;;;;;;;20.59;89.89;99965.06;5015144;28;20310;-57
2023/09/28 05:31:40;;;;;;;9.07;5.17;;;;;;;20.67;88.88;99977.84;5025659;28;20652;-58
2023/09/28 05:34:11;;;;;;;8.73;5.10;;;;;;;20.70;88.81;99968.84;5015888;28;20283;-59
2023/09/28 05:36:41;;;;;;;8.50;5.33;;;;;;;20.63;88.68;99976.31;5037954;28;20350;-59
2023/09/28 05:39:14;;;;;;;10.10;4.97;;;;;;;20.59;88.97;99970.38;5034409;28;20123;-59
2023/09/28 05:41:44;;;;;;;10.23;5.90;;;;;;;20.45;88.84;99968.53;5045203;28;20719;-57
2023/09/28 05:44:15;;;;;;;12.67;5.60;;;;;;;20.33;89.99;99979.03;5035547;28;20067;-58
2023/09/28 05:46:46;;;;;;;12.43;5.33;;;;;;;20.22;89.91;99962.00;5045775;28;20387;-58
2023/09/28 05:49:18;;;;;;;10.10;5.93;;;;;;;20.12;91.34;99955.53;5034873;28;20290;-57
2023/09/28 05:51:48;;;;;;;11.93;6.33;;;;;;;20.04;92.39;99952.47;5045056;28;20340;-56
2023/09/28 05:54:21;;;;;;;12.33;5.53;;;;;;;19.96;92.94;99965.34;5034790;28;20740;-58
2023/09/28 05:56:51;;;;;;;10.03;6.10;;;;;;;19.87;92.92;99955.28;5044752;28;20777;-57
2023/09/28 05:59:22;;;;;;;10.97;6.10;;;;;;;19.78;93.82;99967.31;5014700;28;20665;-56
2023/09/28 06:01:53;;;;;;;13.23;6.67;;;;;;;19.64;95.06;99964.59;5024651;28;20279;-59
2023/09/28 06:04:25;;;;;;;13.00;6.70;;;;;;;19.55;96.22;99966.00;5014649;28;20702;-59
2023/09/28 06:06:55;;;;;;;12.70;6.20;;;;;;;19.41;96.31;99964.13;5042894;28;20365;-58
2023/09/28 06:09:28;;;;;;;13.17;6.03;;;;;;;19.33;96.85;99969.88;5017845;28;20344;-57
2023/09/28 06:12:00;;;;;;;11.07;6.03;;;;;;;19.03;97.08;99932.75;5024735;28;20367;-57
2023/09/28 06:14:30;;;;;;;16.23;6.93;;;;;;;18.87;97.47;99927.47;5014993;28;20764;-57
2023/09/28 06:17:01;;;;;;;13.60;6.63;;;;;;;19.03;98.13;99961.03;5025142;28;20370;-57
2023/09/28 06:19:31;;;;;;;9.90;6.07;;;;;;;18.97;98.53;99972.81;5014598;28;20401;-57
2023/09/28 06:22:22;;;;;;;12.43;7.00;;;;;;;18.91;98.99;99968.69;5005227;28;20306;-59
2023/09/28 06:24:55;;;;;;;15.77;6.43;;;;;;;18.88;99.56;99968.88;5025088;28;20304;-57
2023/09/28 06:27:28;;;;;;;14.70;6.50;;;;;;;18.89;100.00;99982.97;5014825;28;20291;-60
2023/09/28 06:29:59;;;;;;;10.70;6.50;;;;;;;18.84;100.00;99979.72;5024543;28;20287;-59
2023/09/28 06:32:30;;;;;;;9.80;6.10;;;;;;;18.75;100.00;99965.19;5013626;28;20298;-57
2023/09/28 06:35:01;;;;;;;14.40;6.53;;;;;;;18.56;100.00;99951.22;5024163;28;20279;-58
2023/09/28 06:37:32;;;;;;;13.33;6.17;;;;;;;18.60;100.00;99960.72;4994241;28;20299;-57
2023/09/28 06:40:05;;;;;;;16.93;6.80;;;;;;;18.49;100.00;99970.06;5005305;28;20766;-57
2023/09/28 06:42:36;;;;;;;10.73;6.23;;;;;;;18.42;100.00;99959.91;5021356;28;20957;-58
2023/09/28 06:45:09;;;;;;;9.83;6.50;;;;;;;18.39;100.00;99966.22;5038147;28;20739;-58
2023/09/28 06:47:49;;;;;;;9.80;6.77;;;;;;;18.28;100.00;99958.84;5044235;28;21077;-58
2023/09/28 06:50:39;;;;;;;10.00;6.70;;;;;;;18.27;100.00;99966.84;5014381;28;20288;-58
2023/09/28 06:53:09;;;;;;;13.60;7.90;;;;;;;18.21;100.00;99975.13;5014892;28;20271;-58
2023/09/28 06:55:42;;;;;;;11.27;7.40;;;;;;;18.16;100.00;99971.88;5024518;28;20366;-58
2023/09/28 06:58:14;;;;;;;16.73;7.80;;;;;;;18.10;100.00;99973.06;5014461;28;20275;-59
2023/09/28 07:00:45;;;;;;;19.40;7.40;;;;;;;17.85;100.00;99952.34;5024344;28;20291;-57
2023/09/28 07:03:16;;;;;;;15.17;8.37;;;;;;;17.96;100.00;99980.84;4996310;28;20511;-56
2023/09/28 07:05:47;;;;;;;18.40;8.57;;;;;;;17.90;100.00;99976.72;5005609;28;20372;-57
2023/09/28 07:08:17;;;;;;;13.43;8.40;;;;;;;17.80;100.00;99972.84;5000994;28;20291;-59
2023/09/28 07:10:49;;;;;;;12.73;8.03;;;;;;;17.81;100.00;99971.91;5004580;28;20276;-58
2023/09/28 07:13:21;;;;;;;13.83;8.27;;;;;;;17.69;100.00;99963.63;4994748;28;20831;-57
2023/09/28 07:15:52;;;;;;;15.17;8.83;;;;;;;17.73;100.00;99968.78;5004747;28;20326;-58
2023/09/28 07:18:23;;;;;;;15.67;8.13;;;;;;;17.66;100.00;99979.63;5004458;28;20589;-60
2023/09/28 07:20:55;;;;;;;16.27;9.03;;;;;;;17.61;100.00;99978.16;5024342;28;20377;-56
2023/09/28 07:23:26;;;;;;;14.63;9.03;;;;;;;17.44;100.00;99963.16;5014593;28;21033;-58
2023/09/28 07:26:00;;;;;;;16.23;8.47;;;;;;;17.51;100.00;99979.56;5024410;28;20345;-58
2023/09/28 07:28:31;;;;;;;19.43;9.03;;;;;;;17.52;100.00;99974.19;5013656;28;20757;-58
2023/09/28 07:31:01;;;;;;;18.00;9.13;;;;;;;17.46;100.00;99972.72;5023922;28;20576;-58
2023/09/28 07:33:32;;;;;;;14.57;8.83;;;;;;;17.45;100.00;99975.44;5013350;28;20295;-57
2023/09/28 07:36:05;;;;;;;17.00;9.00;;;;;;;17.42;100.00;99975.56;5023813;28;20325;-57
2023/09/28 07:38:36;;;;;;;18.73;9.87;;;;;;;17.40;100.00;99977.44;5014348;28;20283;-58
2023/09/28 07:41:11;;;;;;;18.17;9.43;;;;;;;17.34;100.00;99962.75;5013741;28;20403;-58
2023/09/28 07:43:41;;;;;;;22.93;9.40;;;;;;;17.32;100.00;99969.03;5041121;28;20291;-60
2023/09/28 07:46:13;;;;;;;13.37;9.47;;;;;;;17.30;100.00;99968.25;5036458;28;20738;-58
2023/09/28 07:48:44;;;;;;;15.33;10.43;;;;;;;17.28;100.00;99968.34;5046835;28;20271;-60
2023/09/28 07:51:14;;;;;;;18.40;9.47;;;;;;;17.27;100.00;99955.19;5021810;28;20370;-56
2023/09/28 07:53:46;;;;;;;15.97;10.50;;;;;;;17.25;100.00;99957.94;5027853;28;20738;-59
2023/09/28 07:56:18;;;;;;;13.77;10.03;;;;;;;17.23;100.00;99963.28;5017723;28;20291;-57
2023/09/28 07:58:48;;;;;;;17.53;9.90;;;;;;;17.22;100.00;99956.28;5014744;28;20280;-58
2023/09/28 08:01:19;;;;;;;19.97;10.70;;;;;;;17.18;100.00;99956.53;4998130;28;20299;-58
2023/09/28 08:03:53;;;;;;;17.37;10.47;;;;;;;17.14;100.00;99955.78;5008272;28;20303;-58
2023/09/28 08:06:24;;;;;;;14.23;9.77;;;;;;;17.11;100.00;99955.94;5000778;28;20304;-59
2023/09/28 08:09:00;;;;;;;16.90;10.30;;;;;;;17.05;100.00;99958.91;5049343;28;20655;-57
2023/09/28 08:11:33;;;;;;;18.73;9.93;;;;;;;17.00;100.00;99955.63;5025287;28;20599;-59
2023/09/28 08:14:05;;;;;;;18.57;10.43;;;;;;;16.99;100.00;99956.53;5026735;28;20622;-59
2023/09/28 08:16:35;;;;;;;18.10;13.07;;;;;;;16.98;100.00;99957.47;5026105;28;20292;-58
2023/09/28 08:19:07;;;;;;;37.07;19.27;;;;;;;16.95;100.00;99949.72;5010527;28;20786;-58
2023/09/28 08:21:38;;;;;;;21.27;11.70;;;;;;;16.90;100.00;99952.56;5026710;28;20294;-58
2023/09/28 08:24:10;;;;;;;20.97;10.33;;;;;;;16.88;100.00;99953.56;5016772;28;20301;-56
2023/09/28 08:26:42;;;;;;;13.93;9.80;;;;;;;16.81;100.00;99943.28;5026919;28;20370;-57
2023/09/28 08:29:15;;;;;;;13.60;9.17;;;;;;;16.78;100.00;99950.50;5016442;28;20283;-59
2023/09/28 08:31:46;;;;;;;15.70;9.37;;;;;;;16.76;100.00;99955.81;5026255;28;20591;-59
2023/09/28 08:34:16;;;;;;;13.90;9.03;;;;;;;16.76;100.00;99958.44;5016327;28;20287;-58
2023/09/28 08:37:08;;;;;;;14.23;8.53;;;;;;;16.72;100.00;99959.50;5018816;28;20442;-58
2023/09/28 08:39:38;;;;;;;13.80;8.40;;;;;;;16.74;100.00;99962.94;5026123;28;20287;-57
2023/09/28 08:42:15;;;;;;;16.33;7.87;;;;;;;16.75;100.00;99959.38;5020068;28;20291;-58
2023/09/28 08:44:48;;;;;;;18.73;8.40;;;;;;;16.76;100.00;99966.34;5046654;28;20283;-58
2023/09/28 08:47:20;;;;;;;15.33;8.33;;;;;;;16.75;100.00;99961.19;5035578;28;20291;-56
2023/09/28 08:49:52;;;;;;;18.70;8.80;;;;;;;16.61;100.00;99930.16;5045818;28;20290;-56
2023/09/28 08:52:24;;;;;;;19.27;8.37;;;;;;;16.72;100.00;99948.09;5035842;28;20279;-58
2023/09/28 08:54:55;;;;;;;14.40;9.03;;;;;;;16.72;100.00;99959.50;5045481;28;20310;-60
2023/09/28 08:57:28;;;;;;;19.37;9.40;;;;;;;16.72;100.00;99948.94;5036227;28;20925;-58
2023/09/28 09:00:00;;;;;;;18.73;9.60;;;;;;;16.71;100.00;99947.25;5036559;28;20288;-58
2023/09/28 09:02:44;;;;;;;11.77;8.80;;;;;;;16.66;100.00;99938.69;5034842;28;20291;-60
2023/09/28 09:05:29;;;;;;;14.37;9.00;;;;;;;16.64;100.00;99937.91;5034846;28;20282;-59
2023/09/28 09:08:03;;;;;;;18.23;9.53;;;;;;;16.57;100.00;99929.44;5050891;28;20293;-59
2023/09/28 09:10:37;;;;;;;18.27;10.10;;;;;;;16.50;100.00;99937.69;5034550;28;20348;-59
2023/09/28 09:13:17;;;;;;;15.57;9.87;;;;;;;16.46;100.00;99933.50;5036609;28;20746;-59
2023/09/28 09:15:49;;;;;;;21.13;10.40;;;;;;;16.43;100.00;99931.00;5044696;28;20671;-58
2023/09/28 09:18:20;;;;;;;14.87;9.30;;;;;;;16.34;100.00;99919.09;5016706;28;20283;-59
2023/09/28 09:21:05;;;;;;;14.90;10.27;;;;;;;16.32;100.00;99913.88;5025829;28;20291;-60
2023/09/28 09:24:05;;;;;;;18.13;10.07;;;;;;;16.36;100.00;99920.72;5023150;28;20306;-58
2023/09/28 09:26:45;;;;;;;18.97;9.67;;;;;;;16.34;100.00;99933.13;5041362;28;20323;-58
2023/09/28 09:29:18;;;;;;;17.97;10.60;;;;;;;16.32;100.00;99918.28;5028970;28;20336;-60
2023/09/28 09:31:50;;;;;;;13.60;9.03;;;;;;;16.30;100.00;99915.75;5036859;28;20271;-59
2023/09/28 09:34:22;;;;;;;14.67;10.33;;;;;;;16.22;100.00;99907.31;5029350;28;20366;-59
2023/09/28 09:36:57;;;;;;;14.93;9.97;;;;;;;16.29;100.00;99918.44;5044924;28;20283;-58
2023/09/28 09:39:30;;;;;;;16.03;9.93;;;;;;;15.85;100.00;99866.81;5022242;28;20629;-61
2023/09/28 09:42:02;;;;;;;15.50;9.73;;;;;;;16.20;100.00;99903.91;5025016;28;20283;-58
2023/09/28 09:44:36;;;;;;;16.20;9.27;;;;;;;16.24;100.00;99926.56;5023057;28;20318;-60
2023/09/28 09:47:13;;;;;;;15.40;10.13;;;;;;;16.22;100.00;99928.41;5020302;28;20291;-59
2023/09/28 09:49:53;;;;;;;18.53;8.93;;;;;;;16.22;100.00;99928.41;5020215;28;20306;-60
2023/09/28 09:52:31;;;;;;;16.00;8.83;;;;;;;16.22;100.00;99933.66;5013877;28;20280;-58
2023/09/28 09:55:14;;;;;;;14.37;9.37;;;;;;;16.22;100.00;99932.81;5040481;28;20386;-58
2023/09/28 09:57:58;;;;;;;14.48;8.88;;;;;;;16.23;100.00;99935.41;5053422;28;20481;-59
2023/09/28 10:00:32;;;;;;;18.35;8.95;;;;;;;16.24;100.00;99942.38;5034133;28;20430;-57
2023/09/28 10:03:06;;;;;;;12.53;9.33;;;;;;;16.20;100.00;99935.53;5044742;28;20044;-58
2023/09/28 10:05:39;;;;;;;13.20;9.23;;;;;;;16.24;100.00;99941.53;5035021;28;20291;-57
2023/09/28 10:08:18;;;;;;;16.13;9.47;;;;;;;16.15;100.00;99937.53;5039962;28;20366;-59
2023/09/28 10:10:52;;;;;;;14.83;8.70;;;;;;;16.21;100.00;99952.22;5054558;28;20301;-58
2023/09/28 10:13:23;;;;;;;13.00;8.40;;;;;;;16.06;100.00;99919.47;5038837;28;20315;-59
2023/09/28 10:16:01;;;;;;;11.83;8.00;;;;;;;16.17;100.00;99946.19;5049244;28;20427;-58
2023/09/28 10:18:35;;;;;;;13.97;8.73;;;;;;;16.15;100.00;99943.66;5025909;28;20307;-58
2023/09/28 10:21:07;;;;;;;14.30;8.10;;;;;;;16.16;100.00;99944.50;5041112;28;20282;-60
2023/09/28 10:23:42;;;;;;;14.13;8.50;;;;;;;16.18;100.00;99937.38;5024912;28;20295;-59
2023/09/28 10:26:18;;;;;;;12.17;8.53;;;;;;;16.14;100.00;99941.06;5023548;28;20298;-59
2023/09/28 10:29:06;;;;;;;13.67;9.10;;;;;;;15.98;100.00;99927.72;5037967;28;20271;-60
2023/09/28 10:31:40;;;;;;;13.93;8.15;;;;;;;16.07;100.00;99940.47;5043908;28;20274;-60
2023/09/28 10:34:20;;;;;;;13.00;8.57;;;;;;;16.07;100.00;99952.81;5036511;28;20048;-60
2023/09/28 10:37:20;;;;;;;14.83;8.97;;;;;;;16.07;100.00;99955.44;5031436;28;20280;-58
2023/09/28 10:39:57;;;;;;;17.20;8.03;;;;;;;15.99;100.00;99953.13;5011985;28;20630;-56
2023/09/28 10:42:30;;;;;;;12.83;7.10;;;;;;;15.96;100.00;99959.41;5032839;28;20280;-59
2023/09/28 10:45:07;;;;;;;17.63;7.97;;;;;;;15.95;100.00;99968.25;5034094;28;20334;-58
2023/09/28 10:47:42;;;;;;;21.13;8.63;;;;;;;15.93;100.00;99975.34;5020656;28;20667;-56
2023/09/28 10:50:15;;;;;;;12.27;7.47;;;;;;;15.92;100.00;99978.88;4994678;28;20061;-57
2023/09/28 10:52:48;;;;;;;13.30;7.20;;;;;;;15.88;100.00;99977.34;5004747;28;20288;-58
2023/09/28 10:55:21;;;;;;;12.07;6.70;;;;;;;15.86;100.00;99979.16;4993511;28;20292;-56
2023/09/28 10:57:52;;;;;;;8.80;4.03;;;;;;;15.71;100.00;99964.03;5004442;28;20351;-56
2023/09/28 11:00:30;;;;;;;8.53;3.63;;;;;;;15.70;100.00;99972.81;4994618;28;20794;-59
2023/09/28 11:03:06;;;;;;;7.20;2.50;;;;;;;15.65;100.00;99974.75;5004466;28;20370;-55
2023/09/28 11:05:38;;;;;;;6.03;2.80;;;;;;;15.59;100.00;99969.75;4995085;28;20076;-58
2023/09/28 11:08:14;;;;;;;5.27;1.77;;;;;;;15.52;100.00;99980.56;5003892;28;20719;-57
2023/09/28 11:10:45;;;;;;;4.17;2.20;;;;;;;15.48;100.00;99973.72;5024459;28;20341;-58
2023/09/28 11:13:24;;;;;;;4.43;1.70;;;;;;;15.40;100.00;99981.06;5015450;28;20382;-57
2023/09/28 11:15:59;;;;;;;6.63;2.10;;;;;;;15.30;100.00;99969.16;5023596;28;20307;-57
2023/09/28 11:18:35;;;;;;;4.37;1.80;;;;;;;15.12;100.00;99943.59;5013956;28;20287;-58
2023/09/28 11:21:08;;;;;;;4.07;1.55;;;;;;;15.33;100.00;99974.34;5018209;28;20344;-58
2023/09/28 11:23:40;;;;;;;2.47;1.47;;;;;;;15.28;100.00;99976.28;5048712;28;20186;-59
2023/09/28 11:26:18;;;;;;;1.93;1.50;;;;;;;15.26;100.00;99972.88;5037458;28;20286;-57
2023/09/28 11:28:50;;;;;;;3.40;1.33;;;;;;;15.29;100.00;99972.72;5047563;28;20306;-59
2023/09/28 11:31:21;;;;;;;3.50;1.53;;;;;;;15.30;100.00;99974.44;5037278;28;20136;-60
2023/09/28 11:33:54;;;;;;;5.23;1.60;;;;;;;15.30;100.00;99977.06;5047680;28;20275;-58
2023/09/28 11:36:25;;;;;;;2.40;1.40;;;;;;;15.30;100.00;99970.06;5025478;28;20279;-58
2023/09/28 11:38:58;;;;;;;2.57;1.50;;;;;;;15.29;100.00;99968.31;5027603;28;20299;-56
2023/09/28 11:45:37;;;;;;;2.03;1.57;;;;;;;15.28;100.00;99965.78;5026444;28;20302;-59